Sioux Lookout, Canada
Current Conditions -  °F | °C
As of 6:00 PM on Wednesday 28 Jan 2015 (Local Time) from CYXL Reporting Station
Light Snow Light Snow  
Wind Chill: 27°   Ceiling: 800
Heat Index: 27°   Visibility: 1.5mi
Dew Point: 27°   Wind: 0mph
Humidity: 100%   Direction: NA
Pressure: 29.78"   Gusts: NA
Location:  50.1°N, 91.92°W
Report Text: CYXL 290000Z 00000KT 1 1/2SM -SN FEW003 OVC008 M03/M03 A2978 RMK SF2SF6 CIG RAG /S06/ SLP107
Loading
Personal Weather Stations






























Interactive Weather Map New forecast layout! Learn more

10-Day Weather Forecast

Advertisements
Track Severe Weather on mobile